Hovedside
METAR-TAF:

METAR-TAF

Lufthavner :

Sandane, Norge

Sandane lufthamn. Anda

breddegrad: 61-50N, lengdegrad: 006-07E, høyde over havet: 6 m

Gjeldene værobservasjon

Denne rapporten ble laget for 2 timer og 4 minutter siden, klokken 11:50 UTC
Vind 3 kt fra Sør, skiftende mellom Sør-sørøst og Sørvest
Temperatur 1°C
Luftfuktighet 69%
Trykk 1037 hPa
Sikt 10 km eller mer
Brutte skyer i en høyde av 4700 ft

METAR: ENSD 251150Z 17003KT 150V220 9999 BKN047 01/M04 Q1037 RMK WIND 1138FT VRB01KT

Tid: 14:54 (13:54 UTC)


TAF: fraværende

Værobservasjoner og værvarsel for over 4000 flyplasser (METAR- og TAF-rapporter).

Tilgjengelige stasjoner er representert av de røde og gule prikkene på kartet.

Hold musepekeren over prikken for å se navnet på stasjonen.

Klikk så for å se værobservasjoner og -varsler.

For å forandre kartet kan du klikke på den grønne knappen med svart kryss for å zoome inn, på den grønne knappen med strek for å zoome ut, eller på de grønne pilene for å se tilstøtende kart.


METAR-TAF: